sensor_id;sensor_type;location;lat;lon;timestamp;temperature;humidity
22633;DHT22;11483;55.828;37.488;2023-06-14T00:00:21;14.80;96.10
22633;DHT22;11483;55.828;37.488;2023-06-14T00:02:48;14.80;96.70
22633;DHT22;11483;55.828;37.488;2023-06-14T00:05:14;14.80;97.00
22633;DHT22;11483;55.828;37.488;2023-06-14T00:07:41;14.80;97.30
22633;DHT22;11483;55.828;37.488;2023-06-14T00:10:14;14.70;98.00
22633;DHT22;11483;55.828;37.488;2023-06-14T00:12:40;14.70;98.40
22633;DHT22;11483;55.828;37.488;2023-06-14T00:15:07;14.70;98.50
22633;DHT22;11483;55.828;37.488;2023-06-14T00:17:35;14.70;98.90
22633;DHT22;11483;55.828;37.488;2023-06-14T00:20:03;14.70;99.10
22633;DHT22;11483;55.828;37.488;2023-06-14T00:22:33;14.70;99.90
22633;DHT22;11483;55.828;37.488;2023-06-14T00:25:00;14.60;99.90
22633;DHT22;11483;55.828;37.488;2023-06-14T00:27:25;14.60;99.90
22633;DHT22;11483;55.828;37.488;2023-06-14T00:29:51;14.60;99.90
22633;DHT22;11483;55.828;37.488;2023-06-14T00:32:18;14.60;99.90
22633;DHT22;11483;55.828;37.488;2023-06-14T00:34:44;14.50;99.90
22633;DHT22;11483;55.828;37.488;2023-06-14T00:37:10;14.50;99.90
22633;DHT22;11483;55.828;37.488;2023-06-14T00:39:36;14.50;99.90
22633;DHT22;11483;55.828;37.488;2023-06-14T00:42:02;14.40;99.90
22633;DHT22;11483;55.828;37.488;2023-06-14T00:44:28;14.40;99.90
22633;DHT22;11483;55.828;37.488;2023-06-14T00:46:53;14.40;99.90
22633;DHT22;11483;55.828;37.488;2023-06-14T00:49:20;14.40;99.90
22633;DHT22;11483;55.828;37.488;2023-06-14T00:51:46;14.40;99.90
22633;DHT22;11483;55.828;37.488;2023-06-14T00:54:12;14.40;99.90
22633;DHT22;11483;55.828;37.488;2023-06-14T00:56:38;14.40;99.90
22633;DHT22;11483;55.828;37.488;2023-06-14T00:59:05;14.40;99.90
22633;DHT22;11483;55.828;37.488;2023-06-14T01:01:31;14.50;99.90
22633;DHT22;11483;55.828;37.488;2023-06-14T01:04:00;14.60;99.90
22633;DHT22;11483;55.828;37.488;2023-06-14T01:09:18;14.60;99.90
22633;DHT22;11483;55.828;37.488;2023-06-14T01:12:09;14.70;99.90
22633;DHT22;11483;55.828;37.488;2023-06-14T01:14:38;14.60;99.90
22633;DHT22;11483;55.828;37.488;2023-06-14T01:17:04;14.60;99.90
22633;DHT22;11483;55.828;37.488;2023-06-14T01:19:32;14.60;99.90
22633;DHT22;11483;55.828;37.488;2023-06-14T01:22:01;14.50;99.90
22633;DHT22;11483;55.828;37.488;2023-06-14T01:24:27;14.50;99.90
22633;DHT22;11483;55.828;37.488;2023-06-14T01:26:59;14.60;99.90
22633;DHT22;11483;55.828;37.488;2023-06-14T01:29:25;14.50;99.90
22633;DHT22;11483;55.828;37.488;2023-06-14T01:31:53;14.60;99.90
22633;DHT22;11483;55.828;37.488;2023-06-14T01:34:20;14.50;99.90
22633;DHT22;11483;55.828;37.488;2023-06-14T01:36:47;14.50;99.90
22633;DHT22;11483;55.828;37.488;2023-06-14T01:39:15;14.50;99.90
22633;DHT22;11483;55.828;37.488;2023-06-14T01:41:42;14.50;99.90
22633;DHT22;11483;55.828;37.488;2023-06-14T01:44:09;14.60;99.90
22633;DHT22;11483;55.828;37.488;2023-06-14T01:46:36;14.60;99.90
22633;DHT22;11483;55.828;37.488;2023-06-14T01:49:02;14.70;99.90
22633;DHT22;11483;55.828;37.488;2023-06-14T01:51:28;14.70;99.90
22633;DHT22;11483;55.828;37.488;2023-06-14T01:53:54;14.70;99.90
22633;DHT22;11483;55.828;37.488;2023-06-14T01:56:20;14.70;99.90
22633;DHT22;11483;55.828;37.488;2023-06-14T01:58:47;14.70;99.90
22633;DHT22;11483;55.828;37.488;2023-06-14T02:01:14;14.70;99.90
22633;DHT22;11483;55.828;37.488;2023-06-14T02:03:41;14.80;99.90
22633;DHT22;11483;55.828;37.488;2023-06-14T02:06:08;14.80;99.90
22633;DHT22;11483;55.828;37.488;2023-06-14T02:08:34;14.80;99.90
22633;DHT22;11483;55.828;37.488;2023-06-14T02:10:59;14.90;99.90
22633;DHT22;11483;55.828;37.488;2023-06-14T02:13:25;14.90;99.90
22633;DHT22;11483;55.828;37.488;2023-06-14T02:15:51;15.00;99.90
22633;DHT22;11483;55.828;37.488;2023-06-14T02:18:20;15.00;99.90
22633;DHT22;11483;55.828;37.488;2023-06-14T02:20:47;15.00;99.90
22633;DHT22;11483;55.828;37.488;2023-06-14T02:23:13;15.00;99.90
22633;DHT22;11483;55.828;37.488;2023-06-14T02:25:38;15.00;99.90
22633;DHT22;11483;55.828;37.488;2023-06-14T02:28:06;15.00;99.90
22633;DHT22;11483;55.828;37.488;2023-06-14T02:30:31;15.00;99.90
22633;DHT22;11483;55.828;37.488;2023-06-14T02:32:57;15.10;99.90
22633;DHT22;11483;55.828;37.488;2023-06-14T02:35:24;15.10;99.90
22633;DHT22;11483;55.828;37.488;2023-06-14T02:37:52;15.20;99.90
22633;DHT22;11483;55.828;37.488;2023-06-14T02:40:19;15.20;99.90
22633;DHT22;11483;55.828;37.488;2023-06-14T02:42:45;15.20;99.90
22633;DHT22;11483;55.828;37.488;2023-06-14T02:45:11;15.30;99.90
22633;DHT22;11483;55.828;37.488;2023-06-14T02:47:37;15.30;99.90
22633;DHT22;11483;55.828;37.488;2023-06-14T02:50:03;15.30;99.90
22633;DHT22;11483;55.828;37.488;2023-06-14T02:52:29;15.40;99.90
22633;DHT22;11483;55.828;37.488;2023-06-14T02:54:55;15.50;99.90
22633;DHT22;11483;55.828;37.488;2023-06-14T02:57:22;15.50;99.90
22633;DHT22;11483;55.828;37.488;2023-06-14T02:59:48;15.50;99.90
22633;DHT22;11483;55.828;37.488;2023-06-14T03:02:14;15.60;99.90
22633;DHT22;11483;55.828;37.488;2023-06-14T03:04:40;15.70;99.90
22633;DHT22;11483;55.828;37.488;2023-06-14T03:07:08;15.70;99.90
22633;DHT22;11483;55.828;37.488;2023-06-14T03:09:36;15.80;99.90
22633;DHT22;11483;55.828;37.488;2023-06-14T03:12:03;15.80;99.90
22633;DHT22;11483;55.828;37.488;2023-06-14T03:14:29;15.90;99.90
22633;DHT22;11483;55.828;37.488;2023-06-14T03:16:56;15.90;99.90
22633;DHT22;11483;55.828;37.488;2023-06-14T03:19:23;16.00;99.90
22633;DHT22;11483;55.828;37.488;2023-06-14T03:21:49;16.00;99.90
22633;DHT22;11483;55.828;37.488;2023-06-14T03:24:15;16.10;99.90
22633;DHT22;11483;55.828;37.488;2023-06-14T03:26:44;16.10;99.90
22633;DHT22;11483;55.828;37.488;2023-06-14T03:29:10;16.10;99.90
22633;DHT22;11483;55.828;37.488;2023-06-14T03:31:36;16.20;99.90
22633;DHT22;11483;55.828;37.488;2023-06-14T03:34:02;16.20;99.90
22633;DHT22;11483;55.828;37.488;2023-06-14T03:36:28;16.30;99.90
22633;DHT22;11483;55.828;37.488;2023-06-14T03:38:54;16.40;99.90
22633;DHT22;11483;55.828;37.488;2023-06-14T03:41:20;16.40;99.90
22633;DHT22;11483;55.828;37.488;2023-06-14T03:43:46;16.40;99.90
22633;DHT22;11483;55.828;37.488;2023-06-14T03:46:12;16.40;99.90
22633;DHT22;11483;55.828;37.488;2023-06-14T03:48:38;16.40;99.90
22633;DHT22;11483;55.828;37.488;2023-06-14T03:51:04;16.50;99.90
22633;DHT22;11483;55.828;37.488;2023-06-14T03:53:30;16.50;99.90
22633;DHT22;11483;55.828;37.488;2023-06-14T03:55:57;16.50;99.90
22633;DHT22;11483;55.828;37.488;2023-06-14T03:58:23;16.50;99.90
22633;DHT22;11483;55.828;37.488;2023-06-14T04:00:49;16.50;99.90
22633;DHT22;11483;55.828;37.488;2023-06-14T04:03:15;16.60;99.90
22633;DHT22;11483;55.828;37.488;2023-06-14T04:05:42;16.80;99.90
22633;DHT22;11483;55.828;37.488;2023-06-14T04:08:08;16.80;99.90
22633;DHT22;11483;55.828;37.488;2023-06-14T04:10:40;16.90;99.90
22633;DHT22;11483;55.828;37.488;2023-06-14T04:13:06;17.00;99.90
22633;DHT22;11483;55.828;37.488;2023-06-14T04:15:32;17.00;99.90
22633;DHT22;11483;55.828;37.488;2023-06-14T04:17:59;17.00;99.90
22633;DHT22;11483;55.828;37.488;2023-06-14T04:20:27;17.00;99.90
22633;DHT22;11483;55.828;37.488;2023-06-14T04:22:53;17.00;99.90
22633;DHT22;11483;55.828;37.488;2023-06-14T04:25:19;17.00;99.90
22633;DHT22;11483;55.828;37.488;2023-06-14T04:27:46;17.00;99.90
22633;DHT22;11483;55.828;37.488;2023-06-14T04:30:12;17.10;99.90
22633;DHT22;11483;55.828;37.488;2023-06-14T04:32:38;17.10;99.90
22633;DHT22;11483;55.828;37.488;2023-06-14T04:35:08;17.20;99.90
22633;DHT22;11483;55.828;37.488;2023-06-14T04:37:34;17.30;99.90
22633;DHT22;11483;55.828;37.488;2023-06-14T04:40:00;17.40;99.90
22633;DHT22;11483;55.828;37.488;2023-06-14T04:42:26;17.50;99.90
22633;DHT22;11483;55.828;37.488;2023-06-14T04:44:56;17.60;99.90
22633;DHT22;11483;55.828;37.488;2023-06-14T04:47:23;17.70;99.90
22633;DHT22;11483;55.828;37.488;2023-06-14T04:49:56;17.70;99.90
22633;DHT22;11483;55.828;37.488;2023-06-14T04:52:22;17.80;99.90
22633;DHT22;11483;55.828;37.488;2023-06-14T04:54:48;17.80;99.90
22633;DHT22;11483;55.828;37.488;2023-06-14T04:57:14;17.90;99.90
22633;DHT22;11483;55.828;37.488;2023-06-14T04:59:45;18.00;99.90
22633;DHT22;11483;55.828;37.488;2023-06-14T05:02:11;18.10;99.90
22633;DHT22;11483;55.828;37.488;2023-06-14T05:04:38;18.10;99.90
22633;DHT22;11483;55.828;37.488;2023-06-14T05:07:07;18.10;99.90
22633;DHT22;11483;55.828;37.488;2023-06-14T05:09:33;18.20;99.90
22633;DHT22;11483;55.828;37.488;2023-06-14T05:11:59;18.20;99.90
22633;DHT22;11483;55.828;37.488;2023-06-14T05:14:26;18.30;99.90
22633;DHT22;11483;55.828;37.488;2023-06-14T05:16:52;18.40;99.90
22633;DHT22;11483;55.828;37.488;2023-06-14T05:19:19;18.50;99.90
22633;DHT22;11483;55.828;37.488;2023-06-14T05:21:47;18.60;99.90
22633;DHT22;11483;55.828;37.488;2023-06-14T05:24:14;18.70;99.90
22633;DHT22;11483;55.828;37.488;2023-06-14T05:26:39;18.70;99.90
22633;DHT22;11483;55.828;37.488;2023-06-14T05:29:06;18.80;99.90
22633;DHT22;11483;55.828;37.488;2023-06-14T05:31:32;18.90;99.60
22633;DHT22;11483;55.828;37.488;2023-06-14T05:33:58;19.00;99.40
22633;DHT22;11483;55.828;37.488;2023-06-14T05:36:24;19.00;99.50
22633;DHT22;11483;55.828;37.488;2023-06-14T05:38:50;19.10;99.10
22633;DHT22;11483;55.828;37.488;2023-06-14T05:41:16;19.20;98.60
22633;DHT22;11483;55.828;37.488;2023-06-14T05:43:42;19.30;98.30
22633;DHT22;11483;55.828;37.488;2023-06-14T05:46:08;19.30;97.70
22633;DHT22;11483;55.828;37.488;2023-06-14T05:48:34;19.40;97.20
22633;DHT22;11483;55.828;37.488;2023-06-14T05:51:00;19.50;97.20
22633;DHT22;11483;55.828;37.488;2023-06-14T05:53:26;19.60;96.20
22633;DHT22;11483;55.828;37.488;2023-06-14T05:55:52;19.70;96.50
22633;DHT22;11483;55.828;37.488;2023-06-14T05:58:20;19.80;96.20
22633;DHT22;11483;55.828;37.488;2023-06-14T06:00:46;19.90;96.50
22633;DHT22;11483;55.828;37.488;2023-06-14T06:03:12;20.00;96.10
22633;DHT22;11483;55.828;37.488;2023-06-14T06:05:39;20.00;95.10
22633;DHT22;11483;55.828;37.488;2023-06-14T06:08:05;20.10;96.00
22633;DHT22;11483;55.828;37.488;2023-06-14T06:10:31;20.20;95.50
22633;DHT22;11483;55.828;37.488;2023-06-14T06:12:57;20.30;94.20
22633;DHT22;11483;55.828;37.488;2023-06-14T06:15:23;20.40;93.90
22633;DHT22;11483;55.828;37.488;2023-06-14T06:17:49;20.50;92.70
22633;DHT22;11483;55.828;37.488;2023-06-14T06:20:16;20.60;93.10
22633;DHT22;11483;55.828;37.488;2023-06-14T06:22:43;20.70;93.10
22633;DHT22;11483;55.828;37.488;2023-06-14T06:25:09;20.80;92.90
22633;DHT22;11483;55.828;37.488;2023-06-14T06:27:35;20.80;91.50
22633;DHT22;11483;55.828;37.488;2023-06-14T06:30:03;20.90;91.80
22633;DHT22;11483;55.828;37.488;2023-06-14T06:32:29;21.00;91.40
22633;DHT22;11483;55.828;37.488;2023-06-14T06:34:55;21.10;90.70
22633;DHT22;11483;55.828;37.488;2023-06-14T06:37:21;21.10;89.40
22633;DHT22;11483;55.828;37.488;2023-06-14T06:39:47;21.10;89.30
22633;DHT22;11483;55.828;37.488;2023-06-14T06:42:13;21.20;89.10
22633;DHT22;11483;55.828;37.488;2023-06-14T06:44:39;21.30;88.30
22633;DHT22;11483;55.828;37.488;2023-06-14T06:47:05;21.30;87.40
22633;DHT22;11483;55.828;37.488;2023-06-14T06:49:31;21.40;86.20
22633;DHT22;11483;55.828;37.488;2023-06-14T06:52:05;21.30;83.70
22633;DHT22;11483;55.828;37.488;2023-06-14T06:54:31;21.30;83.10
22633;DHT22;11483;55.828;37.488;2023-06-14T06:56:57;21.30;85.10
22633;DHT22;11483;55.828;37.488;2023-06-14T06:59:23;21.40;82.80
22633;DHT22;11483;55.828;37.488;2023-06-14T07:01:49;21.50;83.20
22633;DHT22;11483;55.828;37.488;2023-06-14T07:04:16;21.50;82.80
22633;DHT22;11483;55.828;37.488;2023-06-14T07:06:42;21.50;82.10
22633;DHT22;11483;55.828;37.488;2023-06-14T07:09:08;21.50;82.00
22633;DHT22;11483;55.828;37.488;2023-06-14T07:11:42;21.60;81.30
22633;DHT22;11483;55.828;37.488;2023-06-14T07:14:08;21.60;80.20
22633;DHT22;11483;55.828;37.488;2023-06-14T07:16:34;21.60;81.00
22633;DHT22;11483;55.828;37.488;2023-06-14T07:19:01;21.60;81.80
22633;DHT22;11483;55.828;37.488;2023-06-14T07:21:28;21.60;81.80
22633;DHT22;11483;55.828;37.488;2023-06-14T07:23:53;21.70;82.70
22633;DHT22;11483;55.828;37.488;2023-06-14T07:26:20;21.70;81.10
22633;DHT22;11483;55.828;37.488;2023-06-14T07:28:47;21.90;80.20
22633;DHT22;11483;55.828;37.488;2023-06-14T07:31:13;22.10;81.60
22633;DHT22;11483;55.828;37.488;2023-06-14T07:33:40;22.30;79.80
22633;DHT22;11483;55.828;37.488;2023-06-14T07:36:06;22.50;80.10
22633;DHT22;11483;55.828;37.488;2023-06-14T07:38:32;22.60;78.10
22633;DHT22;11483;55.828;37.488;2023-06-14T07:40:59;22.60;77.70
22633;DHT22;11483;55.828;37.488;2023-06-14T07:43:25;22.70;79.20
22633;DHT22;11483;55.828;37.488;2023-06-14T07:45:50;22.90;78.20
22633;DHT22;11483;55.828;37.488;2023-06-14T07:48:16;23.00;78.50
22633;DHT22;11483;55.828;37.488;2023-06-14T07:50:42;23.10;77.10
22633;DHT22;11483;55.828;37.488;2023-06-14T07:53:08;23.10;76.30
22633;DHT22;11483;55.828;37.488;2023-06-14T07:55:34;23.10;75.90
22633;DHT22;11483;55.828;37.488;2023-06-14T07:58:06;23.20;75.70
22633;DHT22;11483;55.828;37.488;2023-06-14T08:00:32;23.20;74.90
22633;DHT22;11483;55.828;37.488;2023-06-14T08:02:58;23.30;73.50
22633;DHT22;11483;55.828;37.488;2023-06-14T08:05:25;23.40;72.40
22633;DHT22;11483;55.828;37.488;2023-06-14T08:07:51;23.40;73.70
22633;DHT22;11483;55.828;37.488;2023-06-14T08:10:18;23.50;74.10
22633;DHT22;11483;55.828;37.488;2023-06-14T08:12:44;23.60;73.60
22633;DHT22;11483;55.828;37.488;2023-06-14T08:15:10;23.70;75.20
22633;DHT22;11483;55.828;37.488;2023-06-14T08:17:36;23.60;73.60
22633;DHT22;11483;55.828;37.488;2023-06-14T08:20:03;23.70;74.60
22633;DHT22;11483;55.828;37.488;2023-06-14T08:22:32;23.80;73.20
22633;DHT22;11483;55.828;37.488;2023-06-14T08:25:01;23.90;72.80
22633;DHT22;11483;55.828;37.488;2023-06-14T08:27:28;23.80;71.50
22633;DHT22;11483;55.828;37.488;2023-06-14T08:29:54;23.80;72.00
22633;DHT22;11483;55.828;37.488;2023-06-14T08:32:20;23.80;72.10
22633;DHT22;11483;55.828;37.488;2023-06-14T08:34:46;23.80;72.20
22633;DHT22;11483;55.828;37.488;2023-06-14T08:37:11;24.00;71.50
22633;DHT22;11483;55.828;37.488;2023-06-14T08:39:37;24.10;71.00
22633;DHT22;11483;55.828;37.488;2023-06-14T08:42:04;24.20;71.40
22633;DHT22;11483;55.828;37.488;2023-06-14T08:44:32;24.40;70.20
22633;DHT22;11483;55.828;37.488;2023-06-14T08:46:59;24.50;70.30
22633;DHT22;11483;55.828;37.488;2023-06-14T08:49:26;24.50;70.00
22633;DHT22;11483;55.828;37.488;2023-06-14T08:52:00;24.60;69.30
22633;DHT22;11483;55.828;37.488;2023-06-14T08:54:29;25.00;67.70
22633;DHT22;11483;55.828;37.488;2023-06-14T08:56:59;26.40;66.20
22633;DHT22;11483;55.828;37.488;2023-06-14T08:59:28;28.50;63.40
22633;DHT22;11483;55.828;37.488;2023-06-14T09:01:56;30.20;60.00
22633;DHT22;11483;55.828;37.488;2023-06-14T09:04:22;31.50;59.20
22633;DHT22;11483;55.828;37.488;2023-06-14T09:06:49;33.20;54.70
22633;DHT22;11483;55.828;37.488;2023-06-14T09:09:22;35.40;53.70
22633;DHT22;11483;55.828;37.488;2023-06-14T09:11:51;36.30;49.30
22633;DHT22;11483;55.828;37.488;2023-06-14T09:14:23;36.60;48.70
22633;DHT22;11483;55.828;37.488;2023-06-14T09:16:53;37.80;45.90
22633;DHT22;11483;55.828;37.488;2023-06-14T09:19:25;38.10;44.90
22633;DHT22;11483;55.828;37.488;2023-06-14T09:21:52;38.80;43.70
22633;DHT22;11483;55.828;37.488;2023-06-14T09:24:19;39.70;42.60
22633;DHT22;11483;55.828;37.488;2023-06-14T09:26:48;39.90;42.60
22633;DHT22;11483;55.828;37.488;2023-06-14T09:29:17;39.90;41.20
22633;DHT22;11483;55.828;37.488;2023-06-14T09:31:45;40.30;39.70
22633;DHT22;11483;55.828;37.488;2023-06-14T09:34:11;39.60;40.20
22633;DHT22;11483;55.828;37.488;2023-06-14T09:36:39;38.90;40.30
22633;DHT22;11483;55.828;37.488;2023-06-14T09:39:08;38.70;40.00
22633;DHT22;11483;55.828;37.488;2023-06-14T09:41:36;39.20;40.20
22633;DHT22;11483;55.828;37.488;2023-06-14T09:44:07;39.90;40.00
22633;DHT22;11483;55.828;37.488;2023-06-14T09:46:33;40.80;39.40
22633;DHT22;11483;55.828;37.488;2023-06-14T09:49:00;41.60;38.10
22633;DHT22;11483;55.828;37.488;2023-06-14T09:51:26;41.10;37.80
22633;DHT22;11483;55.828;37.488;2023-06-14T09:53:53;40.20;36.80
22633;DHT22;11483;55.828;37.488;2023-06-14T09:56:28;39.40;37.90
22633;DHT22;11483;55.828;37.488;2023-06-14T09:58:57;38.80;37.90
22633;DHT22;11483;55.828;37.488;2023-06-14T10:01:24;39.20;38.70
22633;DHT22;11483;55.828;37.488;2023-06-14T10:03:50;38.90;38.20
22633;DHT22;11483;55.828;37.488;2023-06-14T10:06:16;39.00;38.10
22633;DHT22;11483;55.828;37.488;2023-06-14T10:08:42;39.20;38.50
22633;DHT22;11483;55.828;37.488;2023-06-14T10:11:08;39.60;38.40
22633;DHT22;11483;55.828;37.488;2023-06-14T10:13:34;40.10;37.30
22633;DHT22;11483;55.828;37.488;2023-06-14T10:16:11;40.00;37.50
22633;DHT22;11483;55.828;37.488;2023-06-14T10:18:45;39.40;37.50
22633;DHT22;11483;55.828;37.488;2023-06-14T10:23:40;39.70;37.90
22633;DHT22;11483;55.828;37.488;2023-06-14T10:26:07;40.40;37.90
22633;DHT22;11483;55.828;37.488;2023-06-14T10:28:37;40.40;36.90
22633;DHT22;11483;55.828;37.488;2023-06-14T10:31:11;39.30;36.60
22633;DHT22;11483;55.828;37.488;2023-06-14T10:41:27;38.20;38.30
22633;DHT22;11483;55.828;37.488;2023-06-14T10:46:58;38.00;39.00
22633;DHT22;11483;55.828;37.488;2023-06-14T10:49:49;38.50;38.20
22633;DHT22;11483;55.828;37.488;2023-06-14T10:52:16;37.80;37.60
22633;DHT22;11483;55.828;37.488;2023-06-14T10:57:44;36.60;38.60
22633;DHT22;11483;55.828;37.488;2023-06-14T11:00:18;36.30;38.10
22633;DHT22;11483;55.828;37.488;2023-06-14T11:08:20;35.60;39.50
22633;DHT22;11483;55.828;37.488;2023-06-14T11:10:50;35.90;39.30
22633;DHT22;11483;55.828;37.488;2023-06-14T11:13:17;35.60;39.00
22633;DHT22;11483;55.828;37.488;2023-06-14T11:15:47;35.60;39.40
22633;DHT22;11483;55.828;37.488;2023-06-14T11:18:14;36.10;39.80
22633;DHT22;11483;55.828;37.488;2023-06-14T11:20:45;36.70;38.80
22633;DHT22;11483;55.828;37.488;2023-06-14T11:23:11;37.60;39.20
22633;DHT22;11483;55.828;37.488;2023-06-14T11:25:37;38.40;37.90
22633;DHT22;11483;55.828;37.488;2023-06-14T11:28:03;39.50;37.70
22633;DHT22;11483;55.828;37.488;2023-06-14T11:30:29;39.60;36.60
22633;DHT22;11483;55.828;37.488;2023-06-14T11:32:55;38.50;37.00
22633;DHT22;11483;55.828;37.488;2023-06-14T11:35:22;37.10;37.40
22633;DHT22;11483;55.828;37.488;2023-06-14T11:37:57;36.50;37.90
22633;DHT22;11483;55.828;37.488;2023-06-14T11:40:25;36.50;38.20
22633;DHT22;11483;55.828;37.488;2023-06-14T11:42:58;36.20;37.90
22633;DHT22;11483;55.828;37.488;2023-06-14T11:45:25;35.90;38.40
22633;DHT22;11483;55.828;37.488;2023-06-14T11:47:51;36.20;38.60
22633;DHT22;11483;55.828;37.488;2023-06-14T11:50:17;36.10;38.20
22633;DHT22;11483;55.828;37.488;2023-06-14T11:52:43;36.10;38.50
22633;DHT22;11483;55.828;37.488;2023-06-14T11:55:09;36.90;38.90
22633;DHT22;11483;55.828;37.488;2023-06-14T11:57:36;37.90;38.00
22633;DHT22;11483;55.828;37.488;2023-06-14T12:00:06;38.70;37.90
22633;DHT22;11483;55.828;37.488;2023-06-14T12:02:41;39.10;36.70
22633;DHT22;11483;55.828;37.488;2023-06-14T12:05:08;38.20;36.40
22633;DHT22;11483;55.828;37.488;2023-06-14T12:07:38;37.60;36.40
22633;DHT22;11483;55.828;37.488;2023-06-14T12:10:08;37.20;36.80
22633;DHT22;11483;55.828;37.488;2023-06-14T12:12:38;36.40;36.60
22633;DHT22;11483;55.828;37.488;2023-06-14T12:15:05;36.40;37.70
22633;DHT22;11483;55.828;37.488;2023-06-14T12:17:33;36.50;38.30
22633;DHT22;11483;55.828;37.488;2023-06-14T12:20:08;36.90;38.00
22633;DHT22;11483;55.828;37.488;2023-06-14T12:22:46;36.90;37.80
22633;DHT22;11483;55.828;37.488;2023-06-14T12:25:30;37.20;38.00
22633;DHT22;11483;55.828;37.488;2023-06-14T12:28:00;36.90;37.30
22633;DHT22;11483;55.828;37.488;2023-06-14T12:30:29;36.60;37.40
22633;DHT22;11483;55.828;37.488;2023-06-14T12:32:54;36.20;37.30
22633;DHT22;11483;55.828;37.488;2023-06-14T12:35:21;35.50;38.00
22633;DHT22;11483;55.828;37.488;2023-06-14T12:37:47;34.80;38.30
22633;DHT22;11483;55.828;37.488;2023-06-14T12:40:13;34.50;38.80
22633;DHT22;11483;55.828;37.488;2023-06-14T12:42:40;34.10;39.10
22633;DHT22;11483;55.828;37.488;2023-06-14T12:45:07;34.10;39.60
22633;DHT22;11483;55.828;37.488;2023-06-14T12:47:32;34.70;40.10
22633;DHT22;11483;55.828;37.488;2023-06-14T12:49:58;35.60;39.80
22633;DHT22;11483;55.828;37.488;2023-06-14T12:52:26;36.60;38.00
22633;DHT22;11483;55.828;37.488;2023-06-14T12:54:52;36.30;37.10
22633;DHT22;11483;55.828;37.488;2023-06-14T12:57:18;35.60;37.50
22633;DHT22;11483;55.828;37.488;2023-06-14T12:59:44;35.10;38.90
22633;DHT22;11483;55.828;37.488;2023-06-14T13:02:15;35.30;38.90
22633;DHT22;11483;55.828;37.488;2023-06-14T13:04:41;35.40;38.50
22633;DHT22;11483;55.828;37.488;2023-06-14T13:07:06;34.90;38.20
22633;DHT22;11483;55.828;37.488;2023-06-14T13:09:32;34.50;38.50
22633;DHT22;11483;55.828;37.488;2023-06-14T13:11:58;34.20;38.50
22633;DHT22;11483;55.828;37.488;2023-06-14T13:14:24;34.00;38.60
22633;DHT22;11483;55.828;37.488;2023-06-14T13:16:50;34.20;39.40
22633;DHT22;11483;55.828;37.488;2023-06-14T13:19:16;35.00;38.30
22633;DHT22;11483;55.828;37.488;2023-06-14T13:21:42;35.10;37.30
22633;DHT22;11483;55.828;37.488;2023-06-14T13:24:08;35.20;37.10
22633;DHT22;11483;55.828;37.488;2023-06-14T13:26:34;35.80;37.50
22633;DHT22;11483;55.828;37.488;2023-06-14T13:29:00;35.30;37.20
22633;DHT22;11483;55.828;37.488;2023-06-14T13:31:26;34.80;37.60
22633;DHT22;11483;55.828;37.488;2023-06-14T13:33:52;34.60;38.10
22633;DHT22;11483;55.828;37.488;2023-06-14T13:36:21;35.10;38.10
22633;DHT22;11483;55.828;37.488;2023-06-14T13:38:49;36.20;38.20
22633;DHT22;11483;55.828;37.488;2023-06-14T13:41:17;36.30;37.80
22633;DHT22;11483;55.828;37.488;2023-06-14T13:43:42;37.10;37.30
22633;DHT22;11483;55.828;37.488;2023-06-14T13:46:08;37.20;36.30
22633;DHT22;11483;55.828;37.488;2023-06-14T13:48:34;36.80;36.10
22633;DHT22;11483;55.828;37.488;2023-06-14T13:51:00;36.50;36.20
22633;DHT22;11483;55.828;37.488;2023-06-14T13:53:26;35.80;36.70
22633;DHT22;11483;55.828;37.488;2023-06-14T13:55:52;35.30;37.50
22633;DHT22;11483;55.828;37.488;2023-06-14T13:58:19;35.10;37.30
22633;DHT22;11483;55.828;37.488;2023-06-14T14:00:44;34.80;37.50
22633;DHT22;11483;55.828;37.488;2023-06-14T14:03:10;34.70;37.90
22633;DHT22;11483;55.828;37.488;2023-06-14T14:05:36;34.60;37.80
22633;DHT22;11483;55.828;37.488;2023-06-14T14:08:03;34.60;38.00
22633;DHT22;11483;55.828;37.488;2023-06-14T14:10:29;34.60;39.00
22633;DHT22;11483;55.828;37.488;2023-06-14T14:12:55;35.60;38.90
22633;DHT22;11483;55.828;37.488;2023-06-14T14:15:22;35.50;37.80
22633;DHT22;11483;55.828;37.488;2023-06-14T14:17:48;35.20;37.60
22633;DHT22;11483;55.828;37.488;2023-06-14T14:20:14;35.40;38.30
22633;DHT22;11483;55.828;37.488;2023-06-14T14:22:44;36.00;37.90
22633;DHT22;11483;55.828;37.488;2023-06-14T14:25:10;36.10;37.20
22633;DHT22;11483;55.828;37.488;2023-06-14T14:27:36;35.60;37.10
22633;DHT22;11483;55.828;37.488;2023-06-14T14:30:05;35.00;37.30
22633;DHT22;11483;55.828;37.488;2023-06-14T14:32:31;34.60;38.00
22633;DHT22;11483;55.828;37.488;2023-06-14T14:34:57;34.70;38.00
22633;DHT22;11483;55.828;37.488;2023-06-14T14:37:23;34.50;38.00
22633;DHT22;11483;55.828;37.488;2023-06-14T14:39:50;34.30;38.30
22633;DHT22;11483;55.828;37.488;2023-06-14T14:42:15;34.60;39.90
22633;DHT22;11483;55.828;37.488;2023-06-14T14:44:42;35.50;38.20
22633;DHT22;11483;55.828;37.488;2023-06-14T14:47:08;35.20;37.60
22633;DHT22;11483;55.828;37.488;2023-06-14T14:49:33;34.90;38.00
22633;DHT22;11483;55.828;37.488;2023-06-14T14:51:59;34.80;37.70
22633;DHT22;11483;55.828;37.488;2023-06-14T14:54:26;34.70;37.60
22633;DHT22;11483;55.828;37.488;2023-06-14T14:56:51;33.90;38.10
22633;DHT22;11483;55.828;37.488;2023-06-14T14:59:17;33.50;38.90
22633;DHT22;11483;55.828;37.488;2023-06-14T15:01:44;33.30;39.10
22633;DHT22;11483;55.828;37.488;2023-06-14T15:04:11;33.40;39.20
22633;DHT22;11483;55.828;37.488;2023-06-14T15:06:37;33.40;39.20
22633;DHT22;11483;55.828;37.488;2023-06-14T15:09:06;33.50;39.50
22633;DHT22;11483;55.828;37.488;2023-06-14T15:11:31;33.20;39.40
22633;DHT22;11483;55.828;37.488;2023-06-14T15:13:57;32.90;39.80
22633;DHT22;11483;55.828;37.488;2023-06-14T15:16:23;32.90;39.90
22633;DHT22;11483;55.828;37.488;2023-06-14T15:18:49;32.90;40.10
22633;DHT22;11483;55.828;37.488;2023-06-14T15:21:15;32.70;39.50
22633;DHT22;11483;55.828;37.488;2023-06-14T15:23:41;32.50;39.20
22633;DHT22;11483;55.828;37.488;2023-06-14T15:26:07;32.10;40.00
22633;DHT22;11483;55.828;37.488;2023-06-14T15:28:33;32.10;40.10
22633;DHT22;11483;55.828;37.488;2023-06-14T15:30:59;32.20;40.00
22633;DHT22;11483;55.828;37.488;2023-06-14T15:33:25;32.20;40.10
22633;DHT22;11483;55.828;37.488;2023-06-14T15:35:51;32.40;40.50
22633;DHT22;11483;55.828;37.488;2023-06-14T15:38:17;32.60;40.70